sensor_id;sensor_type;location;lat;lon;timestamp;P1;durP1;ratioP1;P2;durP2;ratioP2
1999;SDS011;1001;48.87406500;9.59633600;2023-04-25T00:00:57;4.27;;;2.90;;
1999;SDS011;1001;48.87406500;9.59633600;2023-04-25T00:03:25;3.17;;;2.23;;
1999;SDS011;1001;48.87406500;9.59633600;2023-04-25T00:05:52;2.60;;;2.40;;
1999;SDS011;1001;48.87406500;9.59633600;2023-04-25T00:08:18;3.40;;;3.10;;
1999;SDS011;1001;48.87406500;9.59633600;2023-04-25T00:10:45;4.33;;;2.53;;
1999;SDS011;1001;48.87406500;9.59633600;2023-04-25T00:13:11;3.43;;;2.70;;
1999;SDS011;1001;48.87406500;9.59633600;2023-04-25T00:15:38;3.63;;;3.03;;
1999;SDS011;1001;48.87406500;9.59633600;2023-04-25T00:18:06;4.50;;;2.60;;
1999;SDS011;1001;48.87406500;9.59633600;2023-04-25T00:20:34;6.57;;;3.50;;
1999;SDS011;1001;48.87406500;9.59633600;2023-04-25T00:23:01;3.40;;;2.53;;
1999;SDS011;1001;48.87406500;9.59633600;2023-04-25T00:25:28;3.10;;;2.53;;
1999;SDS011;1001;48.87406500;9.59633600;2023-04-25T00:27:54;5.40;;;2.60;;
1999;SDS011;1001;48.87406500;9.59633600;2023-04-25T00:30:21;2.87;;;2.57;;
1999;SDS011;1001;48.87406500;9.59633600;2023-04-25T00:32:47;3.10;;;2.80;;
1999;SDS011;1001;48.87406500;9.59633600;2023-04-25T00:35:14;4.57;;;2.90;;
1999;SDS011;1001;48.87406500;9.59633600;2023-04-25T00:37:43;4.73;;;2.93;;
1999;SDS011;1001;48.87406500;9.59633600;2023-04-25T00:40:10;5.73;;;2.97;;
1999;SDS011;1001;48.87406500;9.59633600;2023-04-25T00:42:37;4.87;;;2.67;;
1999;SDS011;1001;48.87406500;9.59633600;2023-04-25T00:45:04;3.57;;;2.90;;
1999;SDS011;1001;48.87406500;9.59633600;2023-04-25T00:47:32;4.00;;;2.40;;
1999;SDS011;1001;48.87406500;9.59633600;2023-04-25T00:49:59;4.63;;;3.00;;
1999;SDS011;1001;48.87406500;9.59633600;2023-04-25T00:52:26;5.10;;;3.37;;
1999;SDS011;1001;48.87406500;9.59633600;2023-04-25T00:54:54;4.63;;;3.17;;
1999;SDS011;1001;48.87406500;9.59633600;2023-04-25T00:57:21;5.30;;;3.10;;
1999;SDS011;1001;48.87406500;9.59633600;2023-04-25T00:59:48;4.40;;;2.73;;
1999;SDS011;1001;48.87406500;9.59633600;2023-04-25T01:02:17;3.40;;;3.07;;
1999;SDS011;1001;48.87406500;9.59633600;2023-04-25T01:04:44;3.83;;;3.17;;
1999;SDS011;1001;48.87406500;9.59633600;2023-04-25T01:07:11;3.23;;;2.93;;
1999;SDS011;1001;48.87406500;9.59633600;2023-04-25T01:09:38;3.40;;;2.60;;
1999;SDS011;1001;48.87406500;9.59633600;2023-04-25T01:12:06;7.07;;;3.30;;
1999;SDS011;1001;48.87406500;9.59633600;2023-04-25T01:14:33;3.40;;;3.10;;
1999;SDS011;1001;48.87406500;9.59633600;2023-04-25T01:17:00;3.80;;;3.20;;
1999;SDS011;1001;48.87406500;9.59633600;2023-04-25T01:19:27;4.13;;;3.13;;
1999;SDS011;1001;48.87406500;9.59633600;2023-04-25T01:21:56;4.77;;;3.40;;
1999;SDS011;1001;48.87406500;9.59633600;2023-04-25T01:24:23;5.13;;;3.37;;
1999;SDS011;1001;48.87406500;9.59633600;2023-04-25T01:26:49;3.93;;;3.07;;
1999;SDS011;1001;48.87406500;9.59633600;2023-04-25T01:29:16;3.13;;;2.80;;
1999;SDS011;1001;48.87406500;9.59633600;2023-04-25T01:31:44;4.50;;;3.33;;
1999;SDS011;1001;48.87406500;9.59633600;2023-04-25T01:34:11;3.20;;;2.90;;
1999;SDS011;1001;48.87406500;9.59633600;2023-04-25T01:36:38;3.97;;;2.60;;
1999;SDS011;1001;48.87406500;9.59633600;2023-04-25T01:39:07;3.87;;;3.30;;
1999;SDS011;1001;48.87406500;9.59633600;2023-04-25T01:41:33;6.80;;;3.10;;
1999;SDS011;1001;48.87406500;9.59633600;2023-04-25T01:44:00;5.30;;;3.33;;
1999;SDS011;1001;48.87406500;9.59633600;2023-04-25T01:46:28;4.90;;;3.53;;
1999;SDS011;1001;48.87406500;9.59633600;2023-04-25T01:48:54;3.33;;;3.03;;
1999;SDS011;1001;48.87406500;9.59633600;2023-04-25T01:51:21;3.70;;;3.03;;
1999;SDS011;1001;48.87406500;9.59633600;2023-04-25T01:53:48;4.60;;;3.17;;
1999;SDS011;1001;48.87406500;9.59633600;2023-04-25T01:56:16;4.50;;;2.57;;
1999;SDS011;1001;48.87406500;9.59633600;2023-04-25T01:58:44;3.03;;;2.73;;
1999;SDS011;1001;48.87406500;9.59633600;2023-04-25T02:01:10;3.30;;;3.00;;
1999;SDS011;1001;48.87406500;9.59633600;2023-04-25T02:03:37;4.00;;;3.00;;
1999;SDS011;1001;48.87406500;9.59633600;2023-04-25T02:06:03;3.43;;;2.43;;
1999;SDS011;1001;48.87406500;9.59633600;2023-04-25T02:08:30;2.87;;;2.60;;
1999;SDS011;1001;48.87406500;9.59633600;2023-04-25T02:10:57;3.77;;;2.97;;
1999;SDS011;1001;48.87406500;9.59633600;2023-04-25T02:13:25;3.43;;;2.47;;
1999;SDS011;1001;48.87406500;9.59633600;2023-04-25T02:15:51;3.17;;;2.87;;
1999;SDS011;1001;48.87406500;9.59633600;2023-04-25T02:18:18;6.60;;;2.80;;
1999;SDS011;1001;48.87406500;9.59633600;2023-04-25T02:20:46;3.73;;;3.00;;
1999;SDS011;1001;48.87406500;9.59633600;2023-04-25T02:23:13;4.83;;;3.30;;
1999;SDS011;1001;48.87406500;9.59633600;2023-04-25T02:25:40;3.37;;;2.63;;
1999;SDS011;1001;48.87406500;9.59633600;2023-04-25T02:28:07;4.83;;;2.90;;
1999;SDS011;1001;48.87406500;9.59633600;2023-04-25T02:30:34;3.20;;;2.60;;
1999;SDS011;1001;48.87406500;9.59633600;2023-04-25T02:33:01;3.30;;;2.63;;
1999;SDS011;1001;48.87406500;9.59633600;2023-04-25T02:35:28;3.53;;;2.93;;
1999;SDS011;1001;48.87406500;9.59633600;2023-04-25T02:37:54;4.30;;;2.97;;
1999;SDS011;1001;48.87406500;9.59633600;2023-04-25T02:40:21;2.83;;;2.57;;
1999;SDS011;1001;48.87406500;9.59633600;2023-04-25T02:42:47;3.43;;;3.13;;
1999;SDS011;1001;48.87406500;9.59633600;2023-04-25T02:45:14;3.80;;;2.93;;
1999;SDS011;1001;48.87406500;9.59633600;2023-04-25T02:47:42;4.23;;;3.30;;
1999;SDS011;1001;48.87406500;9.59633600;2023-04-25T02:50:09;4.80;;;3.40;;
1999;SDS011;1001;48.87406500;9.59633600;2023-04-25T02:52:36;3.00;;;2.70;;
1999;SDS011;1001;48.87406500;9.59633600;2023-04-25T02:55:03;5.30;;;3.97;;
1999;SDS011;1001;48.87406500;9.59633600;2023-04-25T02:57:30;4.37;;;3.03;;
1999;SDS011;1001;48.87406500;9.59633600;2023-04-25T02:59:57;3.37;;;3.07;;
1999;SDS011;1001;48.87406500;9.59633600;2023-04-25T03:02:23;4.33;;;3.20;;
1999;SDS011;1001;48.87406500;9.59633600;2023-04-25T03:04:51;2.97;;;2.67;;
1999;SDS011;1001;48.87406500;9.59633600;2023-04-25T03:07:18;6.40;;;3.30;;
1999;SDS011;1001;48.87406500;9.59633600;2023-04-25T03:09:45;5.30;;;3.40;;
1999;SDS011;1001;48.87406500;9.59633600;2023-04-25T03:12:12;3.50;;;3.20;;
1999;SDS011;1001;48.87406500;9.59633600;2023-04-25T03:14:38;3.90;;;3.07;;
1999;SDS011;1001;48.87406500;9.59633600;2023-04-25T03:17:05;4.57;;;2.90;;
1999;SDS011;1001;48.87406500;9.59633600;2023-04-25T03:19:31;5.43;;;3.47;;
1999;SDS011;1001;48.87406500;9.59633600;2023-04-25T03:21:59;3.83;;;3.37;;
1999;SDS011;1001;48.87406500;9.59633600;2023-04-25T03:24:26;4.13;;;3.73;;
1999;SDS011;1001;48.87406500;9.59633600;2023-04-25T03:26:53;2.93;;;2.73;;
1999;SDS011;1001;48.87406500;9.59633600;2023-04-25T03:29:19;3.63;;;2.80;;
1999;SDS011;1001;48.87406500;9.59633600;2023-04-25T03:31:49;4.43;;;3.30;;
1999;SDS011;1001;48.87406500;9.59633600;2023-04-25T03:34:16;3.67;;;3.20;;
1999;SDS011;1001;48.87406500;9.59633600;2023-04-25T03:36:42;3.70;;;2.93;;
1999;SDS011;1001;48.87406500;9.59633600;2023-04-25T03:39:11;4.20;;;3.47;;
1999;SDS011;1001;48.87406500;9.59633600;2023-04-25T03:41:37;3.70;;;2.90;;
1999;SDS011;1001;48.87406500;9.59633600;2023-04-25T03:44:04;4.20;;;3.50;;
1999;SDS011;1001;48.87406500;9.59633600;2023-04-25T03:46:31;4.03;;;3.00;;
1999;SDS011;1001;48.87406500;9.59633600;2023-04-25T03:48:57;4.80;;;3.10;;
1999;SDS011;1001;48.87406500;9.59633600;2023-04-25T03:51:24;2.93;;;2.73;;
1999;SDS011;1001;48.87406500;9.59633600;2023-04-25T03:53:51;4.80;;;3.60;;
1999;SDS011;1001;48.87406500;9.59633600;2023-04-25T03:56:19;3.53;;;3.20;;
1999;SDS011;1001;48.87406500;9.59633600;2023-04-25T03:58:46;5.17;;;3.60;;
1999;SDS011;1001;48.87406500;9.59633600;2023-04-25T04:01:12;3.97;;;3.40;;
1999;SDS011;1001;48.87406500;9.59633600;2023-04-25T04:03:39;4.00;;;3.60;;
1999;SDS011;1001;48.87406500;9.59633600;2023-04-25T04:06:06;5.33;;;3.73;;
1999;SDS011;1001;48.87406500;9.59633600;2023-04-25T04:08:33;5.93;;;3.07;;
1999;SDS011;1001;48.87406500;9.59633600;2023-04-25T04:11:00;4.60;;;3.47;;
1999;SDS011;1001;48.87406500;9.59633600;2023-04-25T04:13:28;7.50;;;3.97;;
1999;SDS011;1001;48.87406500;9.59633600;2023-04-25T04:15:55;4.07;;;3.43;;
1999;SDS011;1001;48.87406500;9.59633600;2023-04-25T04:18:22;5.87;;;3.43;;
1999;SDS011;1001;48.87406500;9.59633600;2023-04-25T04:20:49;4.00;;;3.60;;
1999;SDS011;1001;48.87406500;9.59633600;2023-04-25T04:23:16;3.93;;;3.40;;
1999;SDS011;1001;48.87406500;9.59633600;2023-04-25T04:25:43;5.90;;;4.53;;
1999;SDS011;1001;48.87406500;9.59633600;2023-04-25T04:28:09;4.43;;;3.60;;
1999;SDS011;1001;48.87406500;9.59633600;2023-04-25T04:30:37;7.13;;;3.60;;
1999;SDS011;1001;48.87406500;9.59633600;2023-04-25T04:33:04;5.33;;;2.90;;
1999;SDS011;1001;48.87406500;9.59633600;2023-04-25T04:35:30;4.23;;;3.30;;
1999;SDS011;1001;48.87406500;9.59633600;2023-04-25T04:37:57;7.07;;;3.67;;
1999;SDS011;1001;48.87406500;9.59633600;2023-04-25T04:40:24;5.50;;;3.67;;
1999;SDS011;1001;48.87406500;9.59633600;2023-04-25T04:42:51;4.40;;;3.10;;
1999;SDS011;1001;48.87406500;9.59633600;2023-04-25T04:45:21;4.50;;;3.47;;
1999;SDS011;1001;48.87406500;9.59633600;2023-04-25T04:47:50;3.70;;;3.40;;
1999;SDS011;1001;48.87406500;9.59633600;2023-04-25T04:50:16;3.63;;;3.00;;
1999;SDS011;1001;48.87406500;9.59633600;2023-04-25T04:52:43;4.40;;;3.60;;
1999;SDS011;1001;48.87406500;9.59633600;2023-04-25T04:55:09;3.90;;;3.40;;
1999;SDS011;1001;48.87406500;9.59633600;2023-04-25T04:57:36;4.37;;;3.77;;
1999;SDS011;1001;48.87406500;9.59633600;2023-04-25T05:00:04;3.50;;;3.20;;
1999;SDS011;1001;48.87406500;9.59633600;2023-04-25T05:02:35;6.37;;;3.87;;
1999;SDS011;1001;48.87406500;9.59633600;2023-04-25T05:05:04;5.67;;;4.23;;
1999;SDS011;1001;48.87406500;9.59633600;2023-04-25T05:07:31;7.47;;;4.03;;
1999;SDS011;1001;48.87406500;9.59633600;2023-04-25T05:09:57;4.80;;;3.80;;
1999;SDS011;1001;48.87406500;9.59633600;2023-04-25T05:12:24;4.90;;;3.53;;
1999;SDS011;1001;48.87406500;9.59633600;2023-04-25T05:14:50;5.13;;;3.27;;
1999;SDS011;1001;48.87406500;9.59633600;2023-04-25T05:17:17;4.50;;;4.10;;
1999;SDS011;1001;48.87406500;9.59633600;2023-04-25T05:19:43;9.13;;;4.30;;
1999;SDS011;1001;48.87406500;9.59633600;2023-04-25T05:22:11;4.63;;;4.03;;
1999;SDS011;1001;48.87406500;9.59633600;2023-04-25T05:24:38;6.17;;;3.73;;
1999;SDS011;1001;48.87406500;9.59633600;2023-04-25T05:27:04;6.33;;;4.37;;
1999;SDS011;1001;48.87406500;9.59633600;2023-04-25T05:29:31;4.70;;;4.27;;
1999;SDS011;1001;48.87406500;9.59633600;2023-04-25T05:31:58;4.67;;;4.23;;
1999;SDS011;1001;48.87406500;9.59633600;2023-04-25T05:34:24;4.70;;;3.90;;
1999;SDS011;1001;48.87406500;9.59633600;2023-04-25T05:36:51;5.53;;;4.17;;
1999;SDS011;1001;48.87406500;9.59633600;2023-04-25T05:39:19;5.00;;;4.10;;
1999;SDS011;1001;48.87406500;9.59633600;2023-04-25T05:41:46;5.13;;;4.13;;
1999;SDS011;1001;48.87406500;9.59633600;2023-04-25T05:44:12;9.10;;;4.80;;
1999;SDS011;1001;48.87406500;9.59633600;2023-04-25T05:46:40;5.00;;;4.50;;
1999;SDS011;1001;48.87406500;9.59633600;2023-04-25T05:49:07;5.20;;;4.70;;
1999;SDS011;1001;48.87406500;9.59633600;2023-04-25T05:51:34;5.47;;;4.97;;
1999;SDS011;1001;48.87406500;9.59633600;2023-04-25T05:54:00;6.63;;;4.77;;
1999;SDS011;1001;48.87406500;9.59633600;2023-04-25T05:56:28;6.00;;;4.97;;
1999;SDS011;1001;48.87406500;9.59633600;2023-04-25T05:58:55;4.53;;;4.13;;
1999;SDS011;1001;48.87406500;9.59633600;2023-04-25T06:01:22;4.73;;;4.20;;
1999;SDS011;1001;48.87406500;9.59633600;2023-04-25T06:03:48;5.67;;;4.60;;
1999;SDS011;1001;48.87406500;9.59633600;2023-04-25T06:06:16;6.70;;;5.87;;
1999;SDS011;1001;48.87406500;9.59633600;2023-04-25T06:08:43;6.77;;;4.80;;
1999;SDS011;1001;48.87406500;9.59633600;2023-04-25T06:11:09;6.80;;;5.73;;
1999;SDS011;1001;48.87406500;9.59633600;2023-04-25T06:13:37;6.80;;;6.20;;
1999;SDS011;1001;48.87406500;9.59633600;2023-04-25T06:16:04;6.17;;;5.50;;
1999;SDS011;1001;48.87406500;9.59633600;2023-04-25T06:18:31;5.47;;;4.60;;
1999;SDS011;1001;48.87406500;9.59633600;2023-04-25T06:20:58;6.87;;;6.23;;
1999;SDS011;1001;48.87406500;9.59633600;2023-04-25T06:23:24;6.47;;;5.47;;
1999;SDS011;1001;48.87406500;9.59633600;2023-04-25T06:25:51;7.17;;;5.33;;
1999;SDS011;1001;48.87406500;9.59633600;2023-04-25T06:28:18;7.00;;;4.93;;
1999;SDS011;1001;48.87406500;9.59633600;2023-04-25T06:30:48;6.23;;;5.30;;
1999;SDS011;1001;48.87406500;9.59633600;2023-04-25T06:33:15;5.80;;;4.87;;
1999;SDS011;1001;48.87406500;9.59633600;2023-04-25T06:35:41;6.17;;;4.60;;
1999;SDS011;1001;48.87406500;9.59633600;2023-04-25T06:38:08;7.13;;;5.37;;
1999;SDS011;1001;48.87406500;9.59633600;2023-04-25T06:40:35;6.10;;;5.23;;
1999;SDS011;1001;48.87406500;9.59633600;2023-04-25T06:43:01;6.67;;;5.03;;
1999;SDS011;1001;48.87406500;9.59633600;2023-04-25T06:45:28;6.73;;;5.93;;
1999;SDS011;1001;48.87406500;9.59633600;2023-04-25T06:47:56;6.50;;;5.80;;
1999;SDS011;1001;48.87406500;9.59633600;2023-04-25T06:50:22;6.50;;;5.73;;
1999;SDS011;1001;48.87406500;9.59633600;2023-04-25T06:52:49;5.70;;;5.20;;
1999;SDS011;1001;48.87406500;9.59633600;2023-04-25T06:55:16;6.80;;;5.57;;
1999;SDS011;1001;48.87406500;9.59633600;2023-04-25T06:57:42;5.90;;;3.90;;
1999;SDS011;1001;48.87406500;9.59633600;2023-04-25T07:00:09;7.00;;;4.13;;
1999;SDS011;1001;48.87406500;9.59633600;2023-04-25T07:02:36;4.60;;;4.10;;
1999;SDS011;1001;48.87406500;9.59633600;2023-04-25T07:05:05;4.50;;;4.10;;
1999;SDS011;1001;48.87406500;9.59633600;2023-04-25T07:07:31;4.90;;;3.83;;
1999;SDS011;1001;48.87406500;9.59633600;2023-04-25T07:09:58;5.23;;;4.73;;
1999;SDS011;1001;48.87406500;9.59633600;2023-04-25T07:12:25;6.50;;;5.23;;
1999;SDS011;1001;48.87406500;9.59633600;2023-04-25T07:14:51;5.17;;;4.73;;
1999;SDS011;1001;48.87406500;9.59633600;2023-04-25T07:17:18;6.70;;;5.43;;
1999;SDS011;1001;48.87406500;9.59633600;2023-04-25T07:19:44;7.03;;;4.90;;
1999;SDS011;1001;48.87406500;9.59633600;2023-04-25T07:22:12;4.50;;;4.10;;
1999;SDS011;1001;48.87406500;9.59633600;2023-04-25T07:24:39;4.80;;;3.80;;
1999;SDS011;1001;48.87406500;9.59633600;2023-04-25T07:27:06;4.40;;;4.00;;
1999;SDS011;1001;48.87406500;9.59633600;2023-04-25T07:29:32;3.63;;;3.03;;
1999;SDS011;1001;48.87406500;9.59633600;2023-04-25T07:32:02;3.27;;;2.97;;
1999;SDS011;1001;48.87406500;9.59633600;2023-04-25T07:34:28;3.20;;;2.90;;
1999;SDS011;1001;48.87406500;9.59633600;2023-04-25T07:36:55;6.93;;;3.80;;
1999;SDS011;1001;48.87406500;9.59633600;2023-04-25T07:39:23;3.20;;;2.90;;
1999;SDS011;1001;48.87406500;9.59633600;2023-04-25T07:41:50;4.37;;;3.73;;
1999;SDS011;1001;48.87406500;9.59633600;2023-04-25T07:44:17;3.53;;;3.23;;
1999;SDS011;1001;48.87406500;9.59633600;2023-04-25T07:46:43;3.17;;;2.83;;
1999;SDS011;1001;48.87406500;9.59633600;2023-04-25T07:49:10;3.23;;;2.93;;
1999;SDS011;1001;48.87406500;9.59633600;2023-04-25T07:51:37;3.43;;;2.97;;
1999;SDS011;1001;48.87406500;9.59633600;2023-04-25T07:54:03;3.40;;;2.97;;
1999;SDS011;1001;48.87406500;9.59633600;2023-04-25T07:56:31;3.23;;;2.93;;
1999;SDS011;1001;48.87406500;9.59633600;2023-04-25T07:58:58;3.83;;;2.90;;
1999;SDS011;1001;48.87406500;9.59633600;2023-04-25T08:01:25;3.13;;;2.83;;
1999;SDS011;1001;48.87406500;9.59633600;2023-04-25T08:03:52;4.23;;;3.13;;
1999;SDS011;1001;48.87406500;9.59633600;2023-04-25T08:06:18;3.17;;;2.73;;
1999;SDS011;1001;48.87406500;9.59633600;2023-04-25T08:08:45;4.13;;;3.30;;
1999;SDS011;1001;48.87406500;9.59633600;2023-04-25T08:11:11;2.77;;;2.57;;
1999;SDS011;1001;48.87406500;9.59633600;2023-04-25T08:13:39;4.00;;;3.10;;
1999;SDS011;1001;48.87406500;9.59633600;2023-04-25T08:16:06;4.00;;;3.57;;
1999;SDS011;1001;48.87406500;9.59633600;2023-04-25T08:18:33;3.37;;;3.07;;
1999;SDS011;1001;48.87406500;9.59633600;2023-04-25T08:20:59;3.20;;;2.90;;
1999;SDS011;1001;48.87406500;9.59633600;2023-04-25T08:23:26;2.77;;;2.43;;
1999;SDS011;1001;48.87406500;9.59633600;2023-04-25T08:25:52;4.13;;;3.10;;
1999;SDS011;1001;48.87406500;9.59633600;2023-04-25T08:28:19;4.33;;;3.50;;
1999;SDS011;1001;48.87406500;9.59633600;2023-04-25T08:30:47;3.90;;;3.50;;
1999;SDS011;1001;48.87406500;9.59633600;2023-04-25T08:33:14;4.40;;;3.53;;
1999;SDS011;1001;48.87406500;9.59633600;2023-04-25T08:35:40;3.60;;;3.30;;
1999;SDS011;1001;48.87406500;9.59633600;2023-04-25T08:38:07;4.00;;;3.57;;
1999;SDS011;1001;48.87406500;9.59633600;2023-04-25T08:40:35;5.53;;;3.80;;
1999;SDS011;1001;48.87406500;9.59633600;2023-04-25T08:43:05;4.00;;;3.60;;
1999;SDS011;1001;48.87406500;9.59633600;2023-04-25T08:45:36;5.30;;;4.63;;
1999;SDS011;1001;48.87406500;9.59633600;2023-04-25T08:48:06;5.47;;;4.00;;
1999;SDS011;1001;48.87406500;9.59633600;2023-04-25T08:50:36;4.20;;;3.63;;
1999;SDS011;1001;48.87406500;9.59633600;2023-04-25T08:53:04;4.53;;;4.10;;
1999;SDS011;1001;48.87406500;9.59633600;2023-04-25T08:55:35;6.53;;;5.87;;
1999;SDS011;1001;48.87406500;9.59633600;2023-04-25T08:58:03;7.90;;;6.13;;
1999;SDS011;1001;48.87406500;9.59633600;2023-04-25T09:00:31;9.43;;;5.30;;
1999;SDS011;1001;48.87406500;9.59633600;2023-04-25T09:05:26;8.40;;;6.10;;
1999;SDS011;1001;48.87406500;9.59633600;2023-04-25T09:07:54;7.20;;;4.97;;
1999;SDS011;1001;48.87406500;9.59633600;2023-04-25T09:10:21;6.83;;;5.70;;
1999;SDS011;1001;48.87406500;9.59633600;2023-04-25T09:13:01;6.13;;;5.13;;
1999;SDS011;1001;48.87406500;9.59633600;2023-04-25T09:15:29;7.30;;;5.17;;
1999;SDS011;1001;48.87406500;9.59633600;2023-04-25T09:17:56;6.20;;;5.60;;
1999;SDS011;1001;48.87406500;9.59633600;2023-04-25T09:20:23;6.80;;;4.93;;
1999;SDS011;1001;48.87406500;9.59633600;2023-04-25T09:23:02;5.63;;;4.60;;
1999;SDS011;1001;48.87406500;9.59633600;2023-04-25T09:25:33;4.73;;;3.80;;
1999;SDS011;1001;48.87406500;9.59633600;2023-04-25T09:28:03;5.67;;;4.77;;
1999;SDS011;1001;48.87406500;9.59633600;2023-04-25T09:30:31;5.63;;;4.83;;
1999;SDS011;1001;48.87406500;9.59633600;2023-04-25T09:33:03;4.90;;;4.40;;
1999;SDS011;1001;48.87406500;9.59633600;2023-04-25T09:35:32;6.70;;;4.93;;
1999;SDS011;1001;48.87406500;9.59633600;2023-04-25T09:38:03;4.50;;;4.10;;
1999;SDS011;1001;48.87406500;9.59633600;2023-04-25T09:40:33;4.47;;;4.07;;
1999;SDS011;1001;48.87406500;9.59633600;2023-04-25T09:43:00;5.93;;;4.80;;
1999;SDS011;1001;48.87406500;9.59633600;2023-04-25T09:45:29;5.80;;;4.77;;
1999;SDS011;1001;48.87406500;9.59633600;2023-04-25T09:47:56;5.00;;;4.40;;
1999;SDS011;1001;48.87406500;9.59633600;2023-04-25T09:50:22;7.13;;;4.80;;
1999;SDS011;1001;48.87406500;9.59633600;2023-04-25T09:53:03;5.63;;;4.77;;
1999;SDS011;1001;48.87406500;9.59633600;2023-04-25T09:55:31;5.33;;;4.83;;
1999;SDS011;1001;48.87406500;9.59633600;2023-04-25T09:57:58;4.80;;;4.40;;
1999;SDS011;1001;48.87406500;9.59633600;2023-04-25T10:00:30;5.70;;;4.87;;
1999;SDS011;1001;48.87406500;9.59633600;2023-04-25T10:02:58;5.77;;;4.70;;
1999;SDS011;1001;48.87406500;9.59633600;2023-04-25T10:05:28;5.10;;;4.40;;
1999;SDS011;1001;48.87406500;9.59633600;2023-04-25T10:07:56;6.07;;;5.33;;
1999;SDS011;1001;48.87406500;9.59633600;2023-04-25T10:10:26;4.70;;;4.20;;
1999;SDS011;1001;48.87406500;9.59633600;2023-04-25T10:12:54;7.20;;;5.30;;
1999;SDS011;1001;48.87406500;9.59633600;2023-04-25T10:15:21;5.23;;;4.73;;
1999;SDS011;1001;48.87406500;9.59633600;2023-04-25T10:17:48;5.77;;;5.17;;
1999;SDS011;1001;48.87406500;9.59633600;2023-04-25T10:20:16;6.43;;;5.33;;
1999;SDS011;1001;48.87406500;9.59633600;2023-04-25T10:22:44;5.27;;;4.77;;
1999;SDS011;1001;48.87406500;9.59633600;2023-04-25T10:25:13;5.40;;;4.90;;
1999;SDS011;1001;48.87406500;9.59633600;2023-04-25T10:27:42;7.73;;;4.83;;
1999;SDS011;1001;48.87406500;9.59633600;2023-04-25T10:30:10;6.10;;;5.50;;
1999;SDS011;1001;48.87406500;9.59633600;2023-04-25T10:32:41;6.87;;;6.17;;
1999;SDS011;1001;48.87406500;9.59633600;2023-04-25T10:35:12;5.47;;;4.93;;
1999;SDS011;1001;48.87406500;9.59633600;2023-04-25T10:40:30;6.77;;;6.03;;
1999;SDS011;1001;48.87406500;9.59633600;2023-04-25T10:43:32;7.57;;;6.10;;
1999;SDS011;1001;48.87406500;9.59633600;2023-04-25T10:46:03;8.93;;;7.70;;
1999;SDS011;1001;48.87406500;9.59633600;2023-04-25T10:48:43;12.20;;;7.77;;
1999;SDS011;1001;48.87406500;9.59633600;2023-04-25T10:51:16;9.20;;;7.63;;
1999;SDS011;1001;48.87406500;9.59633600;2023-04-25T10:53:44;8.00;;;6.37;;
1999;SDS011;1001;48.87406500;9.59633600;2023-04-25T10:56:11;8.57;;;6.30;;
1999;SDS011;1001;48.87406500;9.59633600;2023-04-25T10:58:44;11.27;;;6.37;;
1999;SDS011;1001;48.87406500;9.59633600;2023-04-25T11:01:11;7.37;;;6.20;;
1999;SDS011;1001;48.87406500;9.59633600;2023-04-25T11:03:40;6.30;;;5.00;;
1999;SDS011;1001;48.87406500;9.59633600;2023-04-25T11:06:09;6.20;;;5.37;;
1999;SDS011;1001;48.87406500;9.59633600;2023-04-25T11:08:47;6.80;;;5.20;;
1999;SDS011;1001;48.87406500;9.59633600;2023-04-25T11:11:14;7.90;;;5.37;;
1999;SDS011;1001;48.87406500;9.59633600;2023-04-25T11:13:41;7.60;;;5.63;;
1999;SDS011;1001;48.87406500;9.59633600;2023-04-25T11:16:09;7.77;;;5.50;;
1999;SDS011;1001;48.87406500;9.59633600;2023-04-25T11:18:36;6.60;;;5.53;;
1999;SDS011;1001;48.87406500;9.59633600;2023-04-25T11:21:03;7.10;;;6.27;;
1999;SDS011;1001;48.87406500;9.59633600;2023-04-25T11:23:31;8.83;;;6.80;;
1999;SDS011;1001;48.87406500;9.59633600;2023-04-25T11:25:57;10.50;;;6.80;;
1999;SDS011;1001;48.87406500;9.59633600;2023-04-25T11:28:26;9.30;;;6.53;;
1999;SDS011;1001;48.87406500;9.59633600;2023-04-25T11:30:53;10.37;;;6.87;;
1999;SDS011;1001;48.87406500;9.59633600;2023-04-25T11:33:24;7.30;;;5.63;;
1999;SDS011;1001;48.87406500;9.59633600;2023-04-25T11:35:53;7.53;;;5.90;;
1999;SDS011;1001;48.87406500;9.59633600;2023-04-25T11:38:21;7.70;;;5.93;;
1999;SDS011;1001;48.87406500;9.59633600;2023-04-25T11:40:51;7.00;;;6.30;;
1999;SDS011;1001;48.87406500;9.59633600;2023-04-25T11:43:19;12.27;;;6.63;;
1999;SDS011;1001;48.87406500;9.59633600;2023-04-25T11:45:47;6.63;;;5.70;;
1999;SDS011;1001;48.87406500;9.59633600;2023-04-25T11:48:14;12.77;;;6.57;;
1999;SDS011;1001;48.87406500;9.59633600;2023-04-25T11:50:42;11.73;;;7.10;;
1999;SDS011;1001;48.87406500;9.59633600;2023-04-25T11:53:09;8.00;;;7.20;;
1999;SDS011;1001;48.87406500;9.59633600;2023-04-25T11:55:36;7.80;;;6.70;;
1999;SDS011;1001;48.87406500;9.59633600;2023-04-25T11:58:03;9.50;;;6.97;;
1999;SDS011;1001;48.87406500;9.59633600;2023-04-25T12:00:31;8.37;;;7.50;;
1999;SDS011;1001;48.87406500;9.59633600;2023-04-25T12:02:58;10.87;;;7.33;;
1999;SDS011;1001;48.87406500;9.59633600;2023-04-25T12:05:25;10.10;;;6.33;;
1999;SDS011;1001;48.87406500;9.59633600;2023-04-25T12:07:54;7.07;;;5.93;;
1999;SDS011;1001;48.87406500;9.59633600;2023-04-25T12:10:21;12.53;;;7.43;;
1999;SDS011;1001;48.87406500;9.59633600;2023-04-25T12:12:50;9.17;;;5.73;;
1999;SDS011;1001;48.87406500;9.59633600;2023-04-25T12:15:17;6.53;;;5.70;;
1999;SDS011;1001;48.87406500;9.59633600;2023-04-25T12:17:50;7.83;;;5.50;;
1999;SDS011;1001;48.87406500;9.59633600;2023-04-25T12:20:19;8.33;;;6.03;;
1999;SDS011;1001;48.87406500;9.59633600;2023-04-25T12:22:49;9.30;;;6.07;;
1999;SDS011;1001;48.87406500;9.59633600;2023-04-25T12:28:13;8.40;;;5.60;;
1999;SDS011;1001;48.87406500;9.59633600;2023-04-25T12:30:55;6.50;;;5.83;;
1999;SDS011;1001;48.87406500;9.59633600;2023-04-25T12:33:24;6.13;;;4.93;;
1999;SDS011;1001;48.87406500;9.59633600;2023-04-25T12:35:51;7.47;;;4.60;;
1999;SDS011;1001;48.87406500;9.59633600;2023-04-25T12:38:22;7.60;;;5.73;;
1999;SDS011;1001;48.87406500;9.59633600;2023-04-25T12:40:53;6.23;;;5.10;;
1999;SDS011;1001;48.87406500;9.59633600;2023-04-25T12:43:20;6.57;;;5.87;;
1999;SDS011;1001;48.87406500;9.59633600;2023-04-25T12:45:47;8.33;;;6.33;;
1999;SDS011;1001;48.87406500;9.59633600;2023-04-25T12:48:14;9.67;;;7.10;;
1999;SDS011;1001;48.87406500;9.59633600;2023-04-25T12:50:41;6.90;;;6.20;;
1999;SDS011;1001;48.87406500;9.59633600;2023-04-25T12:53:07;7.13;;;6.43;;
1999;SDS011;1001;48.87406500;9.59633600;2023-04-25T12:55:34;11.30;;;6.87;;
1999;SDS011;1001;48.87406500;9.59633600;2023-04-25T12:58:02;7.27;;;5.50;;
1999;SDS011;1001;48.87406500;9.59633600;2023-04-25T13:00:29;6.73;;;5.97;;
1999;SDS011;1001;48.87406500;9.59633600;2023-04-25T13:02:56;6.23;;;5.17;;
1999;SDS011;1001;48.87406500;9.59633600;2023-04-25T13:05:23;7.87;;;5.30;;
1999;SDS011;1001;48.87406500;9.59633600;2023-04-25T13:07:50;7.03;;;5.80;;
1999;SDS011;1001;48.87406500;9.59633600;2023-04-25T13:10:17;6.73;;;4.70;;
1999;SDS011;1001;48.87406500;9.59633600;2023-04-25T13:12:43;9.93;;;5.77;;
1999;SDS011;1001;48.87406500;9.59633600;2023-04-25T13:15:12;7.43;;;6.77;;
1999;SDS011;1001;48.87406500;9.59633600;2023-04-25T13:17:40;7.53;;;5.97;;
1999;SDS011;1001;48.87406500;9.59633600;2023-04-25T13:20:08;8.43;;;6.17;;
1999;SDS011;1001;48.87406500;9.59633600;2023-04-25T13:22:35;5.53;;;5.00;;